createdAt,value
2018-04-20T00:02:00.209Z,98.20
2018-04-20T00:04:27.676Z,95.57
2018-04-20T00:06:55.156Z,84.63
2018-04-20T00:09:23.397Z,90.80
2018-04-20T00:11:50.852Z,99.60
2018-04-20T00:14:18.332Z,102.17
2018-04-20T00:16:45.804Z,91.30
2018-04-20T00:19:14.040Z,106.00
2018-04-20T00:21:41.506Z,96.90
2018-04-20T00:24:09.046Z,94.00
2018-04-20T00:26:36.501Z,92.60
2018-04-20T00:29:03.959Z,95.50
2018-04-20T00:31:31.420Z,92.53
2018-04-20T00:33:58.892Z,96.33
2018-04-20T00:36:26.368Z,96.23
2018-04-20T00:38:53.820Z,91.40
2018-04-20T00:41:21.291Z,84.20
2018-04-20T00:43:49.532Z,92.37
2018-04-20T00:46:17.077Z,91.60
2018-04-20T00:48:44.544Z,91.23
2018-04-20T00:51:12.007Z,90.20
2018-04-20T00:53:51.338Z,89.73
2018-04-20T00:56:18.802Z,77.93
2018-04-20T00:58:46.270Z,87.43
2018-04-20T01:01:13.752Z,88.03
2018-04-20T01:03:41.989Z,92.00
2018-04-20T01:06:09.476Z,94.30
2018-04-20T01:08:38.628Z,99.13
2018-04-20T01:11:06.716Z,99.43
2018-04-20T01:13:34.180Z,97.87
2018-04-20T01:16:01.640Z,83.83
2018-04-20T01:18:29.120Z,92.57
2018-04-20T01:20:57.349Z,87.77
2018-04-20T01:23:24.830Z,95.60
2018-04-20T01:25:52.292Z,95.93
2018-04-20T01:28:19.752Z,92.77
2018-04-20T01:30:47.993Z,89.33
2018-04-20T01:33:15.468Z,83.17
2018-04-20T01:35:42.950Z,95.57
2018-04-20T01:38:11.186Z,94.17
2018-04-20T01:40:38.649Z,99.27
2018-04-20T01:43:06.629Z,100.40
2018-04-20T01:45:34.105Z,118.47
2018-04-20T01:48:02.348Z,112.17
2018-04-20T01:50:29.816Z,100.17
2018-04-20T01:52:57.285Z,108.13
2018-04-20T01:55:25.815Z,116.47
2018-04-20T01:57:53.285Z,105.87
2018-04-20T02:00:20.768Z,95.03
2018-04-20T02:02:48.233Z,110.57
2018-04-20T02:05:16.612Z,111.20
2018-04-20T02:07:44.894Z,111.23
2018-04-20T02:10:13.125Z,120.57
2018-04-20T02:12:40.589Z,111.47
2018-04-20T02:15:08.072Z,120.27
2018-04-20T02:17:35.528Z,116.60
2018-04-20T02:20:03.403Z,131.43
2018-04-20T02:22:31.651Z,118.80
2018-04-20T02:24:59.117Z,126.13
2018-04-20T02:27:26.609Z,138.10
2018-04-20T02:29:54.839Z,124.07
2018-04-20T02:32:22.306Z,126.40
2018-04-20T02:34:49.792Z,138.17
2018-04-20T02:37:18.016Z,122.43
2018-04-20T02:39:46.413Z,126.90
2018-04-20T02:42:13.906Z,122.97
2018-04-20T02:44:42.143Z,123.00
2018-04-20T02:47:09.621Z,130.37
2018-04-20T02:49:37.082Z,142.33
2018-04-20T02:52:05.351Z,125.30
2018-04-20T02:54:32.827Z,128.83
2018-04-20T02:57:01.060Z,123.03
2018-04-20T02:59:28.537Z,128.77
2018-04-20T03:01:56.043Z,121.43
2018-04-20T03:04:23.507Z,126.37
2018-04-20T03:06:50.986Z,127.73
2018-04-20T03:09:18.473Z,131.73
2018-04-20T03:11:45.937Z,132.33
2018-04-20T03:14:14.176Z,127.97
2018-04-20T03:16:41.641Z,132.03
2018-04-20T03:19:09.147Z,136.97
2018-04-20T03:21:36.614Z,129.93
2018-04-20T03:24:05.001Z,124.47
2018-04-20T03:26:32.465Z,119.50
2018-04-20T03:28:59.942Z,112.10
2018-04-20T03:31:27.399Z,121.40
2018-04-20T03:33:54.864Z,114.27
2018-04-20T03:36:22.341Z,127.53
2018-04-20T03:38:50.588Z,121.27
2018-04-20T03:41:18.826Z,118.87
2018-04-20T03:43:47.049Z,132.07
2018-04-20T03:46:14.524Z,129.83
2018-04-20T03:48:42.748Z,115.43
2018-04-20T03:51:10.217Z,129.07
2018-04-20T03:53:37.693Z,123.33
2018-04-20T03:56:05.162Z,127.43
2018-04-20T03:58:32.638Z,115.60
2018-04-20T04:01:00.885Z,119.03
2018-04-20T04:03:28.373Z,117.47
2018-04-20T04:05:56.509Z,121.67
2018-04-20T04:08:23.988Z,113.43
2018-04-20T04:10:51.458Z,109.03
2018-04-20T04:13:19.690Z,122.10
2018-04-20T04:15:47.164Z,125.27
2018-04-20T04:18:26.556Z,116.70
2018-04-20T04:21:06.826Z,129.50
2018-04-20T04:23:46.146Z,118.90
2018-04-20T04:26:25.543Z,130.23
2018-04-20T04:28:53.000Z,125.53
2018-04-20T04:31:21.312Z,128.60
2018-04-20T04:33:48.871Z,124.47
2018-04-20T04:36:16.349Z,128.93
2018-04-20T04:38:43.832Z,124.53
2018-04-20T04:41:11.300Z,127.20
2018-04-20T04:43:38.759Z,134.03
2018-04-20T04:46:06.234Z,132.13
2018-04-20T04:48:34.477Z,127.60
2018-04-20T04:51:01.944Z,127.23
2018-04-20T04:53:29.411Z,118.73
2018-04-20T04:55:57.640Z,129.73
2018-04-20T04:58:25.123Z,120.87
2018-04-20T05:00:52.600Z,127.53
2018-04-20T05:03:20.828Z,113.30
2018-04-20T05:05:48.307Z,123.43
2018-04-20T05:08:15.804Z,126.23
2018-04-20T05:10:43.264Z,116.13
2018-04-20T05:13:10.746Z,123.43
2018-04-20T05:15:38.211Z,123.73
2018-04-20T05:18:05.696Z,119.30
2018-04-20T05:20:33.180Z,114.00
2018-04-20T05:23:01.406Z,113.27
2018-04-20T05:25:28.902Z,109.87
2018-04-20T05:27:56.368Z,115.57
2018-04-20T05:30:24.672Z,108.90
2018-04-20T05:32:52.240Z,111.30
2018-04-20T05:35:20.512Z,108.57
2018-04-20T05:37:48.002Z,106.50
2018-04-20T05:40:15.473Z,106.67
2018-04-20T05:42:42.937Z,107.87
2018-04-20T05:45:11.185Z,107.53
2018-04-20T05:47:38.712Z,103.53
2018-04-20T05:50:06.205Z,106.40
2018-04-20T05:52:33.680Z,101.13
2018-04-20T05:55:01.146Z,105.73
2018-04-20T05:57:29.382Z,93.77
2018-04-20T05:59:56.874Z,106.73
2018-04-20T06:02:24.346Z,96.33
2018-04-20T06:04:52.580Z,98.40
2018-04-20T06:07:20.056Z,108.90
2018-04-20T06:09:47.549Z,90.23
2018-04-20T06:12:15.029Z,90.00
2018-04-20T06:14:42.498Z,83.90
2018-04-20T06:17:09.969Z,81.20
2018-04-20T06:19:37.457Z,92.90
2018-04-20T06:22:06.176Z,74.23
2018-04-20T06:24:33.794Z,75.93
2018-04-20T06:27:01.277Z,72.10
2018-04-20T06:29:28.756Z,68.53
2018-04-20T06:31:56.248Z,71.70
2018-04-20T06:34:23.739Z,66.33
2018-04-20T06:36:51.249Z,62.60
2018-04-20T06:39:18.764Z,66.00
2018-04-20T06:41:47.125Z,62.93
2018-04-20T06:44:14.533Z,63.23
2018-04-20T06:46:42.021Z,56.87
2018-04-20T06:49:09.502Z,62.97
2018-04-20T06:51:37.726Z,60.70
2018-04-20T06:54:05.255Z,71.93
2018-04-20T06:56:33.611Z,61.50
2018-04-20T06:59:01.047Z,59.70
2018-04-20T07:01:28.508Z,58.50
2018-04-20T07:03:55.992Z,64.30
2018-04-20T07:06:23.467Z,60.70
2018-04-20T07:08:50.941Z,61.17
2018-04-20T07:11:18.418Z,63.53
2018-04-20T07:13:46.723Z,65.43
2018-04-20T07:16:15.156Z,61.70
2018-04-20T07:18:42.609Z,62.50
2018-04-20T07:21:10.136Z,56.93
2018-04-20T07:23:37.647Z,57.90
2018-04-20T07:26:06.102Z,63.93
2018-04-20T07:28:33.571Z,56.60
2018-04-20T07:31:01.061Z,53.53
2018-04-20T07:33:28.521Z,47.47
2018-04-20T07:35:56.876Z,53.47
2018-04-20T07:38:24.479Z,53.73
2018-04-20T07:40:51.954Z,53.10
2018-04-20T07:43:19.413Z,51.63
2018-04-20T07:45:46.880Z,62.43
2018-04-20T07:48:14.336Z,51.67
2018-04-20T07:50:41.882Z,47.63
2018-04-20T07:53:09.345Z,58.87
2018-04-20T07:55:36.831Z,55.03
2018-04-20T07:58:04.308Z,61.93
2018-04-20T08:00:31.765Z,52.40
2018-04-20T08:02:59.232Z,53.10
2018-04-20T08:05:27.465Z,52.57
2018-04-20T08:07:54.934Z,49.87
2018-04-20T08:10:22.393Z,49.23
2018-04-20T08:12:49.865Z,45.40
2018-04-20T08:15:17.329Z,43.93
2018-04-20T08:17:45.588Z,49.80
2018-04-20T08:20:13.060Z,43.43
2018-04-20T08:22:41.289Z,42.30
2018-04-20T08:25:08.748Z,42.80
2018-04-20T08:27:36.293Z,48.60
2018-04-20T08:30:03.752Z,48.27
2018-04-20T08:32:31.208Z,45.57
2018-04-20T08:34:58.677Z,50.07
2018-04-20T08:37:26.897Z,44.37
2018-04-20T08:39:55.128Z,40.90
2018-04-20T08:42:22.624Z,39.57
2018-04-20T08:44:50.081Z,35.90
2018-04-20T08:47:17.535Z,36.77
2018-04-20T08:49:45.006Z,41.60
2018-04-20T08:52:13.266Z,40.50
2018-04-20T08:54:40.816Z,39.67
2018-04-20T08:57:09.789Z,40.80
2018-04-20T08:59:37.255Z,36.60
2018-04-20T09:02:04.729Z,44.33
2018-04-20T09:04:32.188Z,40.87
2018-04-20T09:06:59.668Z,39.80
2018-04-20T09:09:28.012Z,38.43
2018-04-20T09:11:55.477Z,39.20
2018-04-20T09:14:22.944Z,39.90
2018-04-20T09:16:51.192Z,40.27
2018-04-20T09:19:18.667Z,42.97
2018-04-20T09:21:46.136Z,34.33
2018-04-20T09:24:14.360Z,29.00
2018-04-20T09:26:41.832Z,29.00
2018-04-20T09:29:09.300Z,32.00
2018-04-20T09:31:36.774Z,28.90
2018-04-20T09:34:04.249Z,30.97
2018-04-20T09:36:32.472Z,46.40
2018-04-20T09:38:59.931Z,38.10
2018-04-20T09:41:27.396Z,37.80
2018-04-20T09:43:54.868Z,39.17
2018-04-20T09:46:22.329Z,34.63
2018-04-20T09:48:49.811Z,42.17
2018-04-20T09:51:18.045Z,41.40
2018-04-20T09:53:46.294Z,36.37
2018-04-20T09:56:13.776Z,35.93
2018-04-20T09:58:41.224Z,23.00
2018-04-20T10:01:09.472Z,25.60
2018-04-20T10:03:51.825Z,20.50
2018-04-20T10:06:19.308Z,21.60
2018-04-20T10:08:47.538Z,15.90
2018-04-20T10:11:15.003Z,17.67
2018-04-20T10:13:42.473Z,22.50
2018-04-20T10:16:09.945Z,14.40
2018-04-20T10:18:38.180Z,18.90
2018-04-20T10:21:05.637Z,22.33
2018-04-20T10:23:33.095Z,12.70
2018-04-20T10:26:00.573Z,13.73
2018-04-20T10:28:28.024Z,12.60
2018-04-20T10:30:55.501Z,17.90
2018-04-20T10:33:23.724Z,17.37
2018-04-20T10:35:51.224Z,20.50
2018-04-20T10:38:18.657Z,14.00
2018-04-20T10:40:46.148Z,19.20
2018-04-20T10:43:13.597Z,17.63
2018-04-20T10:45:41.068Z,10.40
2018-04-20T10:48:09.293Z,16.30
2018-04-20T10:50:36.760Z,11.80
2018-04-20T10:53:04.229Z,15.50
2018-04-20T10:55:31.688Z,17.43
2018-04-20T10:57:59.157Z,17.87
2018-04-20T11:00:27.381Z,24.93
2018-04-20T11:02:54.879Z,27.97
2018-04-20T11:05:22.316Z,26.23
2018-04-20T11:07:49.793Z,24.40
2018-04-20T11:10:17.265Z,17.70
2018-04-20T11:12:45.492Z,23.40
2018-04-20T11:15:12.965Z,19.53
2018-04-20T11:17:40.434Z,20.23
2018-04-20T11:20:07.914Z,18.83
2018-04-20T11:22:36.150Z,23.10
2018-04-20T11:25:03.613Z,17.93
2018-04-20T11:27:31.096Z,15.60
2018-04-20T11:29:59.329Z,12.37
2018-04-20T11:32:26.788Z,18.43
2018-04-20T11:34:54.271Z,15.67
2018-04-20T11:37:21.725Z,14.37
2018-04-20T11:39:49.179Z,17.50
2018-04-20T11:42:16.652Z,15.40
2018-04-20T11:44:45.770Z,11.40
2018-04-20T11:47:13.986Z,12.20
2018-04-20T11:49:41.446Z,11.83
2018-04-20T11:52:08.912Z,9.30
2018-04-20T11:54:36.374Z,11.27
2018-04-20T11:57:03.837Z,19.37
2018-04-20T11:59:31.300Z,21.90
2018-04-20T12:01:58.764Z,27.30
2018-04-20T12:04:26.992Z,20.50
2018-04-20T12:06:54.476Z,21.03
2018-04-20T12:09:21.947Z,19.10
2018-04-20T12:11:49.404Z,17.63
2018-04-20T12:14:17.628Z,23.33
2018-04-20T12:16:45.101Z,22.90
2018-04-20T12:19:12.573Z,18.57
2018-04-20T12:21:40.047Z,23.33
2018-04-20T12:24:09.113Z,21.70
2018-04-20T12:26:37.076Z,23.00
2018-04-20T12:29:04.613Z,22.40
2018-04-20T12:31:32.090Z,18.20
2018-04-20T12:33:59.548Z,19.43
2018-04-20T12:36:27.028Z,19.30
2018-04-20T12:38:54.505Z,16.50
2018-04-20T12:41:22.786Z,10.23
2018-04-20T12:43:50.213Z,10.03
2018-04-20T12:46:17.683Z,11.40
2018-04-20T12:48:45.144Z,18.67
2018-04-20T12:51:13.367Z,22.33
2018-04-20T12:53:40.830Z,13.73
2018-04-20T12:56:08.307Z,12.73
2018-04-20T12:58:35.772Z,9.57
2018-04-20T13:01:03.228Z,11.10
2018-04-20T13:03:30.702Z,11.10
2018-04-20T13:05:58.160Z,10.40
2018-04-20T13:08:26.380Z,9.37
2018-04-20T13:10:53.849Z,9.53
2018-04-20T13:13:21.333Z,15.27
2018-04-20T13:15:48.812Z,18.80
2018-04-20T13:18:17.487Z,18.30
2018-04-20T13:20:44.944Z,22.60
2018-04-20T13:23:12.449Z,20.40
2018-04-20T13:25:39.915Z,24.10
2018-04-20T13:28:07.395Z,25.83
2018-04-20T13:30:34.858Z,22.30
2018-04-20T13:33:02.322Z,18.63
2018-04-20T13:35:29.805Z,18.53
2018-04-20T13:37:58.054Z,20.33
2018-04-20T13:40:26.227Z,13.87
2018-04-20T13:42:53.700Z,11.83
2018-04-20T13:45:21.931Z,12.57
2018-04-20T13:47:49.408Z,16.10
2018-04-20T13:50:16.866Z,13.73
2018-04-20T13:52:44.325Z,15.27
2018-04-20T13:55:11.793Z,16.73
2018-04-20T13:57:39.253Z,16.00
2018-04-20T14:00:07.498Z,14.97
2018-04-20T14:02:34.962Z,16.27
2018-04-20T14:05:02.420Z,23.50
2018-04-20T14:07:29.893Z,14.50
2018-04-20T14:09:58.148Z,24.47
2018-04-20T14:12:25.616Z,21.47
2018-04-20T14:14:53.086Z,18.40
2018-04-20T14:17:20.546Z,17.27
2018-04-20T14:19:48.789Z,14.03
2018-04-20T14:22:16.257Z,17.67
2018-04-20T14:24:43.725Z,12.97
2018-04-20T14:27:11.188Z,13.70
2018-04-20T14:29:39.428Z,12.40
2018-04-20T14:32:06.883Z,10.47
2018-04-20T14:34:34.377Z,14.27
2018-04-20T14:37:01.829Z,13.23
2018-04-20T14:39:29.285Z,12.20
2018-04-20T14:41:56.763Z,11.47
2018-04-20T14:44:25.001Z,13.60
2018-04-20T14:46:52.452Z,9.00
2018-04-20T14:49:19.921Z,9.30
2018-04-20T14:51:47.388Z,11.40
2018-04-20T14:54:14.832Z,9.27
2018-04-20T14:56:42.296Z,7.77
2018-04-20T14:59:09.744Z,7.27
2018-04-20T15:01:37.212Z,7.23
2018-04-20T15:04:04.673Z,4.97
2018-04-20T15:06:32.141Z,8.43
2018-04-20T15:09:00.377Z,6.10
2018-04-20T15:11:27.833Z,11.57
2018-04-20T15:13:55.335Z,10.47
2018-04-20T15:16:23.561Z,9.00
2018-04-20T15:18:51.100Z,9.83
2018-04-20T15:21:18.492Z,7.77
2018-04-20T15:23:45.953Z,9.67
2018-04-20T15:26:13.417Z,8.63
2018-04-20T15:28:40.886Z,13.70
2018-04-20T15:31:09.124Z,16.80
2018-04-20T15:33:37.096Z,11.37
2018-04-20T15:36:04.613Z,17.63
2018-04-20T15:38:32.032Z,17.60
2018-04-20T15:40:59.501Z,17.63
2018-04-20T15:43:27.725Z,16.70
2018-04-20T15:45:55.188Z,23.80
2018-04-20T15:48:22.666Z,23.80
2018-04-20T15:50:50.124Z,25.00
2018-04-20T15:53:17.588Z,19.03
2018-04-20T15:55:45.060Z,20.23
2018-04-20T15:58:13.288Z,25.43
2018-04-20T16:00:40.773Z,24.53
2018-04-20T16:03:08.228Z,30.63
2018-04-20T16:05:35.700Z,35.00
2018-04-20T16:08:03.953Z,32.73
2018-04-20T16:10:31.396Z,25.67
2018-04-20T16:12:58.880Z,29.40
2018-04-20T16:15:26.336Z,36.13
2018-04-20T16:17:53.814Z,30.17
2018-04-20T16:20:22.049Z,33.13
2018-04-20T16:22:49.505Z,41.80
2018-04-20T16:25:16.980Z,33.40
2018-04-20T16:27:44.432Z,43.50
2018-04-20T16:30:11.900Z,45.03
2018-04-20T16:32:40.152Z,47.13
2018-04-20T16:35:12.117Z,43.23
2018-04-20T16:37:39.600Z,45.47
2018-04-20T16:40:07.861Z,48.60
2018-04-20T16:42:35.328Z,51.73
2018-04-20T16:45:02.800Z,45.40
2018-04-20T16:47:31.028Z,54.00
2018-04-20T16:49:58.504Z,44.63
2018-04-20T16:52:25.973Z,49.80
2018-04-20T16:54:54.197Z,53.83
2018-04-20T16:57:21.670Z,47.37
2018-04-20T16:59:49.133Z,61.27
2018-04-20T17:02:17.112Z,56.33
2018-04-20T17:04:45.588Z,54.57
2018-04-20T17:07:13.088Z,54.43
2018-04-20T17:09:40.513Z,53.20
2018-04-20T17:12:07.988Z,63.37
2018-04-20T17:14:36.223Z,63.60
2018-04-20T17:17:03.690Z,63.00
2018-04-20T17:19:31.158Z,52.60
2018-04-20T17:21:58.635Z,55.20
2018-04-20T17:24:26.861Z,58.17
2018-04-20T17:26:54.333Z,58.03
2018-04-20T17:29:21.796Z,60.67
2018-04-20T17:31:49.261Z,62.47
2018-04-20T17:34:16.733Z,62.77
2018-04-20T17:36:44.954Z,61.27
2018-04-20T17:39:12.427Z,66.00
2018-04-20T17:41:39.905Z,76.00
2018-04-20T17:44:07.466Z,82.00
2018-04-20T17:46:34.924Z,69.77
2018-04-20T17:49:02.501Z,69.80
2018-04-20T17:51:30.732Z,79.27
2018-04-20T17:53:58.201Z,63.13
2018-04-20T17:56:25.723Z,63.60
2018-04-20T17:58:53.175Z,60.83
2018-04-20T18:01:20.645Z,61.87
2018-04-20T18:03:48.149Z,71.43
2018-04-20T18:06:15.605Z,62.00
2018-04-20T18:08:43.085Z,71.17
2018-04-20T18:11:10.560Z,77.00
2018-04-20T18:13:38.020Z,69.97
2018-04-20T18:16:06.452Z,71.10
2018-04-20T18:18:33.891Z,70.20
2018-04-20T18:21:01.360Z,71.77
2018-04-20T18:23:28.839Z,78.27
2018-04-20T18:25:57.061Z,74.63
2018-04-20T18:28:24.516Z,73.37
2018-04-20T18:30:51.993Z,79.47
2018-04-20T18:33:19.465Z,78.13
2018-04-20T18:35:46.930Z,87.33
2018-04-20T18:38:15.158Z,91.80
2018-04-20T18:40:42.633Z,74.83
2018-04-20T18:43:10.117Z,83.70
2018-04-20T18:45:37.574Z,95.70
2018-04-20T18:48:05.555Z,86.17
2018-04-20T18:50:33.769Z,86.20
2018-04-20T18:53:01.227Z,94.33
2018-04-20T18:55:28.698Z,85.63
2018-04-20T18:57:56.164Z,103.27
2018-04-20T19:00:23.632Z,101.30
2018-04-20T19:02:51.108Z,105.20
2018-04-20T19:05:19.384Z,100.17
2018-04-20T19:07:47.620Z,97.43
2018-04-20T19:10:15.077Z,105.43
2018-04-20T19:12:42.543Z,111.10
2018-04-20T19:15:10.008Z,117.77
2018-04-20T19:17:38.428Z,115.97
2018-04-20T19:20:05.884Z,126.90
2018-04-20T19:22:33.346Z,128.53
2018-04-20T19:25:00.831Z,134.00
2018-04-20T19:27:28.302Z,138.07
2018-04-20T19:29:55.785Z,148.90
2018-04-20T19:32:23.257Z,135.20
2018-04-20T19:34:51.500Z,132.30
2018-04-20T19:37:18.964Z,139.57
2018-04-20T19:39:46.440Z,147.47
2018-04-20T19:42:14.683Z,138.43
2018-04-20T19:44:42.252Z,141.93
2018-04-20T19:47:09.726Z,150.60
2018-04-20T19:49:38.013Z,134.77
2018-04-20T19:52:06.241Z,147.50
2018-04-20T19:54:33.720Z,149.43
2018-04-20T19:57:01.178Z,146.50
2018-04-20T19:59:28.639Z,148.30
2018-04-20T20:01:56.144Z,153.13
2018-04-20T20:04:23.608Z,159.70
2018-04-20T20:06:51.073Z,166.83
2018-04-20T20:09:18.588Z,156.47
2018-04-20T20:11:46.853Z,154.50
2018-04-20T20:14:14.301Z,161.00
2018-04-20T20:16:41.782Z,165.77
2018-04-20T20:19:09.361Z,167.53
2018-04-20T20:21:36.830Z,167.37
2018-04-20T20:24:04.286Z,152.73
2018-04-20T20:26:31.764Z,167.00
2018-04-20T20:28:59.226Z,157.73
2018-04-20T20:31:26.714Z,182.53
2018-04-20T20:33:54.944Z,171.30
2018-04-20T20:36:22.479Z,171.73
2018-04-20T20:38:49.959Z,170.17
2018-04-20T20:41:17.436Z,178.67
2018-04-20T20:43:44.937Z,184.57
2018-04-20T20:46:12.407Z,195.27
2018-04-20T20:48:39.877Z,180.50
2018-04-20T20:51:07.340Z,180.50
2018-04-20T20:53:34.817Z,183.33
2018-04-20T20:56:02.296Z,182.00
2018-04-20T20:58:30.532Z,194.00
2018-04-20T21:00:58.001Z,192.73
2018-04-20T21:03:26.370Z,192.23
2018-04-20T21:05:53.832Z,196.90
2018-04-20T21:08:21.301Z,210.43
2018-04-20T21:10:48.770Z,204.73
2018-04-20T21:13:16.248Z,194.60
2018-04-20T21:15:44.994Z,195.23
2018-04-20T21:18:12.477Z,215.60
2018-04-20T21:20:40.707Z,211.53
2018-04-20T21:23:08.181Z,203.03
2018-04-20T21:25:35.661Z,218.17
2018-04-20T21:28:03.142Z,205.23
2018-04-20T21:30:30.645Z,211.60
2018-04-20T21:32:58.128Z,222.33
2018-04-20T21:35:25.604Z,216.17
2018-04-20T21:37:53.860Z,223.33
2018-04-20T21:40:21.330Z,211.30
2018-04-20T21:42:49.560Z,211.50
2018-04-20T21:45:18.168Z,213.73
2018-04-20T21:47:46.313Z,218.60
2018-04-20T21:50:14.582Z,221.07
2018-04-20T21:52:42.062Z,207.73
2018-04-20T21:55:09.562Z,217.87
2018-04-20T21:57:36.994Z,204.70
2018-04-20T22:00:05.010Z,219.07
2018-04-20T22:02:32.480Z,222.40
2018-04-20T22:04:59.956Z,219.37
2018-04-20T22:07:27.463Z,226.40
2018-04-20T22:09:54.918Z,198.93
2018-04-20T22:12:23.161Z,215.87
2018-04-20T22:14:50.634Z,236.40
2018-04-20T22:17:18.109Z,210.20
2018-04-20T22:19:45.572Z,217.90
2018-04-20T22:22:13.037Z,206.33
2018-04-20T22:24:40.525Z,219.00
2018-04-20T22:27:07.991Z,204.40
2018-04-20T22:29:35.465Z,219.60
2018-04-20T22:32:02.957Z,208.60
2018-04-20T22:34:30.422Z,218.47
2018-04-20T22:36:57.889Z,191.00
2018-04-20T22:39:26.284Z,199.53
2018-04-20T22:41:53.757Z,205.90
2018-04-20T22:44:21.217Z,209.77
2018-04-20T22:46:48.689Z,210.07
2018-04-20T22:49:16.154Z,211.57
2018-04-20T22:51:44.396Z,200.13
2018-04-20T22:54:12.023Z,196.77
2018-04-20T22:56:39.496Z,197.53
2018-04-20T22:59:06.976Z,205.03
2018-04-20T23:01:34.452Z,189.53
2018-04-20T23:04:01.913Z,206.10
2018-04-20T23:06:29.372Z,190.23
2018-04-20T23:08:58.413Z,196.53
2018-04-20T23:11:26.578Z,188.80
2018-04-20T23:13:54.048Z,200.70
2018-04-20T23:16:21.524Z,197.50
2018-04-20T23:18:49.009Z,198.80
2018-04-20T23:21:17.267Z,199.37
2018-04-20T23:23:44.732Z,187.60
2018-04-20T23:26:12.328Z,216.23
2018-04-20T23:28:39.802Z,197.90
2018-04-20T23:31:07.271Z,192.73
2018-04-20T23:33:34.732Z,199.13
2018-04-20T23:36:02.270Z,192.93
2018-04-20T23:38:29.727Z,183.07
2018-04-20T23:40:57.200Z,199.63
2018-04-20T23:43:24.680Z,206.67
2018-04-20T23:45:52.148Z,202.10
2018-04-20T23:48:19.625Z,203.10
2018-04-20T23:50:47.868Z,188.00
2018-04-20T23:53:15.332Z,213.70
2018-04-20T23:55:42.805Z,209.47
2018-04-20T23:58:11.057Z,204.07
